メインページ
METAR-TAF:

METAR-TAF

空港 :

ブリュッセル, ベルギー

ブリュッセル空港

緯度: 50-54N, 経度: 004-32E, 海抜: 55m

現時点の気象観測

当レポートは11分前の23:20(UTC)に作成
の風 5kt
気温 3°C
湿度 81%
気圧 1023 hPa
視程10km以上
1,500メートル以下は雲なし、積乱雲なし

METAR: EBBR 232320Z 17005KT CAVOK 03/00 Q1023 NOSIG

時間: 01:31 (23:31 UTC)

予報

当レポートは6時間31分前の17:00(UTC)に作成
予報は23日の 18時(UTC)から 24日の 24時(UTC)まで有効
北/北東の風 5kt
視程10km以上
高度4500ftの雲は散在している
24日の 06時(UTC)から 24日の 08時(UTC)まで徐々に
南西の風 10kt

TAF: EBBR 231700Z 2318/2424 03005KT 9999 SCT045 BECMG 2406/2408 23010KT

4,000以上の空港の気象観測と天気予報(METAR報とTAF報)

利用可能な観測所は地図上に黄色い丸と赤い丸で示す。

丸の上にカーソルを重ねると観測所名を参照できる。

次にクリックすると気象観測と天気予報を参照できる。

マップの切り替え:黒色「×」印の緑ボタンをクリックして拡大、「-」印の緑ボタンをクリックして縮小、緑色の三角印をクリックして隣りの地図に切り替え


METAR-TAF: